Latest Weather Observations for Glen Innes Airport

IDN60801

Issued at 7:19 pm EDT Wednesday 4 March 2015 (issued every 30 minutes, with the page automatically refreshed every 10 minutes)

About weather observations | Map of weather stations | Latest weather observations for NSW | Other Formats
Station Details ID: 056243 Name: GLEN INNES AIRPORT AWS Lat: -29.68 Lon: 151.69 Height: 1044.3 m
Data from the previous 72 hours. | See also: Recent months for locations in New South Wales
Date/Time
EDT
Temp
°C
App
Temp
°C
Dew
Point
Rel
Hum
%
Delta-T
°C
Wind Press
QNH
hPa
Press
MSL
hPa
Rain
since 9 am
mm
Dir
 
Spd
km/h
Gust
km/h
Spd
kts
Gust
kts
04/07:00pm 25.4 24.6 16.0 56 6.0 NW 15 20 8 11 1016.1 1011.4 0.0
04/06:30pm 25.9 24.6 15.9 54 6.4 WNW 17 20 9 11 1016.2 1011.5 0.0
04/06:00pm 26.4 24.4 15.4 50 7.0 WNW 20 26 11 14 1016.2 1011.5 0.0
04/05:30pm 27.3 25.5 16.0 50 7.2 NW 20 32 11 17 1016.1 1011.4 0.0
04/05:00pm 26.7 24.4 15.7 51 7.0 WNW 22 30 12 16 1016.2 1011.5 0.0
04/04:30pm 27.9 25.3 15.9 48 7.7 W 24 32 13 17 1016.1 1011.4 0.0
04/04:00pm 27.4 25.9 16.7 52 6.9 W 20 30 11 16 1016.3 1011.6 0.0
04/03:30pm 28.2 27.1 17.4 52 7.1 W 19 26 10 14 1016.6 1011.9 0.0
04/03:00pm 27.4 26.3 17.3 54 6.6 W 19 28 10 15 1017.1 1012.4 0.0
04/02:30pm 27.5 26.2 16.8 52 6.9 WNW 19 24 10 13 1017.5 1012.8 0.0
04/02:00pm 27.0 25.7 17.2 55 6.4 WNW 20 30 11 16 1018.1 1013.4 0.0
04/01:30pm 26.6 25.0 16.5 54 6.5 WNW 20 28 11 15 1018.4 1013.7 0.0
04/01:00pm 26.5 24.9 16.4 53 6.5 WNW 20 28 11 15 1018.7 1014.1 0.0
04/12:30pm 26.1 24.3 16.1 54 6.4 W 20 28 11 15 1019.1 1014.4 0.0
04/12:00pm 25.9 24.1 15.9 54 6.4 WNW 20 28 11 15 1019.4 1014.7 0.0
04/11:30am 25.6 24.8 17.0 59 5.6 WNW 17 26 9 14 1019.6 1015.0 0.0
04/11:00am 25.1 23.9 16.0 57 5.8 WNW 17 24 9 13 1019.8 1015.2 0.0
04/10:30am 24.5 23.3 16.0 59 5.4 WNW 17 24 9 13 1019.8 1015.2 0.0
04/10:00am 23.6 23.5 15.9 62 4.9 WNW 11 17 6 9 1019.8 1015.2 0.0
04/09:30am 22.2 22.5 15.1 64 4.4 NNW 7 11 4 6 1019.7 1015.1 0.0
04/09:00am 20.5 21.2 15.5 73 3.1 NNE 6 9 3 5 1019.6 1015.0 0.0
04/08:30am 19.2 21.8 17.5 90 1.1 CALM 0 6 0 3 1019.3 1014.6 0.0
04/08:00am 17.2 18.1 16.2 94 0.6 ESE 6 7 3 4 1019.1 1014.4 0.0
04/07:30am 15.7 16.0 15.1 96 0.4 E 7 9 4 5 1018.6 1014.0 0.0
04/07:00am 14.5 14.5 13.7 95 0.5 ESE 6 7 3 4 1018.5 1013.8 0.0
04/06:30am 14.9 14.6 14.3 96 0.4 E 9 11 5 6 1018.1 1013.4 0.0
04/06:00am 14.8 14.7 14.0 95 0.5 ESE 7 11 4 6 1017.8 1013.2 0.0
04/05:30am 15.0 14.6 14.2 95 0.5 SE 9 11 5 6 1017.7 1013.1 0.0
04/05:00am 15.2 15.3 14.4 95 0.5 ESE 7 11 4 6 1017.6 1012.9 0.0
04/04:30am 16.0 16.4 15.2 95 0.5 SE 7 9 4 5 1017.7 1013.1 0.0
04/04:00am 16.4 16.2 15.8 96 0.4 ESE 11 13 6 7 1017.7 1013.1 0.0
04/03:30am 16.9 16.9 16.3 96 0.4 SE 11 13 6 7 1017.9 1013.3 0.0
04/03:00am 17.0 17.1 16.5 97 0.3 SE 11 15 6 8 1018.2 1013.5 0.0
04/02:30am 16.4 16.2 15.8 96 0.4 SE 11 13 6 7 1018.4 1013.7 0.0
04/02:00am 15.6 15.4 14.8 95 0.5 SE 9 11 5 6 1018.8 1014.2 0.0
04/01:30am 15.9 16.4 14.9 94 0.6 SE 6 9 3 5 1019.3 1014.6 0.0
04/01:00am 16.1 16.1 15.1 94 0.6 SE 9 9 5 5 1019.4 1014.7 0.0
04/12:30am 16.1 16.1 15.1 94 0.6 SE 9 11 5 6 1019.6 1015.0 0.0
04/12:00am 16.7 16.8 15.4 92 0.8 SE 9 11 5 6 1019.8 1015.2 0.0
 
Date/Time
EDT
Temp
°C
App
Temp
°C
Dew
Point
Rel
Hum
%
Delta-T
°C
Wind Press
QNH
hPa
Press
MSL
hPa
Rain
since 9 am
mm
Dir
 
Spd
km/h
Gust
km/h
Spd
kts
Gust
kts
03/11:30pm 17.1 17.0 16.0 93 0.7 ESE 11 13 6 7 1020.0 1015.4 0.0
03/11:00pm 17.6 17.3 16.5 93 0.7 ESE 13 15 7 8 1020.2 1015.5 0.0
03/10:30pm 18.3 18.6 17.0 92 0.8 E 11 13 6 7 1020.5 1015.9 0.0
03/10:00pm 18.6 18.6 17.3 92 0.8 ESE 13 17 7 9 1020.4 1015.8 0.0
03/09:30pm 18.6 18.6 17.1 91 1.0 ESE 13 17 7 9 1020.2 1015.5 0.0
03/09:00pm 18.9 19.2 17.0 89 1.2 ESE 11 15 6 8 1019.8 1015.2 0.0
03/08:30pm 19.9 20.0 17.5 86 1.5 ESE 13 17 7 9 1019.5 1014.9 0.0
03/08:00pm 20.9 20.5 18.1 84 1.8 E 17 20 9 11 1018.8 1014.2 0.0
03/07:30pm 22.3 21.9 18.1 77 2.7 ESE 17 20 9 11 1018.4 1013.7 0.0
03/07:00pm 24.2 23.0 14.0 53 6.3 SSE 13 15 7 8 1018.1 1013.4 0.0
03/06:30pm 26.0 24.5 13.2 45 7.8 SE 13 19 7 10 1017.7 1013.1 0.0
03/06:00pm 27.2 25.4 13.2 42 8.6 SSW 15 22 8 12 1017.6 1012.9 0.0
03/05:30pm 27.7 26.3 13.3 41 8.9 SSW 13 20 7 11 1017.5 1012.8 0.0
03/05:00pm 27.7 24.8 12.9 40 9.1 SSW 20 26 11 14 1017.5 1012.8 0.0
03/04:30pm 27.5 26.0 11.9 38 9.4 SW 11 20 6 11 1017.5 1012.8 0.0
03/04:00pm 27.8 26.5 14.8 45 8.2 SW 15 24 8 13 1017.5 1012.8 0.0
03/03:30pm 27.3 25.9 16.6 52 6.9 WSW 19 26 10 14 1017.9 1013.3 0.0
03/03:00pm 26.7 25.2 16.3 53 6.7 WSW 19 28 10 15 1018.5 1013.8 0.0
03/02:30pm 26.6 24.8 15.9 51 6.8 WSW 20 33 11 18 1018.9 1014.3 0.0
03/02:00pm 26.2 25.2 15.6 52 6.7 WSW 15 24 8 13 1019.2 1014.5 0.0
03/01:30pm 25.7 22.9 14.2 49 7.1 WSW 22 32 12 17 1019.4 1014.7 0.0
03/01:00pm 25.7 23.6 15.1 52 6.7 W 20 28 11 15 1019.5 1014.9 0.0
03/12:30pm 25.5 23.5 15.5 54 6.3 W 20 28 11 15 1019.9 1015.3 0.0
03/12:00pm 24.5 23.0 14.3 53 6.3 W 15 30 8 16 1020.3 1015.6 0.0
03/11:30am 24.4 23.8 14.5 54 6.1 W 11 20 6 11 1020.5 1015.9 0.0
03/11:00am 22.8 22.9 14.4 59 5.2 N 7 11 4 6 1020.7 1016.1 0.0
03/10:30am 21.7 22.3 15.3 67 4.0 ESE 6 9 3 5 1020.6 1016.0 0.0
03/10:00am 20.1 20.8 14.5 70 3.4 ESE 4 9 2 5 1020.7 1016.1 0.0
03/09:30am 18.4 17.7 14.3 77 2.5 SE 11 15 6 8 1020.7 1016.1 0.0
03/09:00am 17.2 16.1 14.3 83 1.7 ESE 13 19 7 10 1020.5 1015.9 0.0
03/08:30am 15.5 13.4 13.5 88 1.2 SE 17 20 9 11 1020.4 1015.8 0.0
03/08:00am 15.6 14.3 13.8 89 1.1 ESE 13 17 7 9 1020.0 1015.4 0.0
03/07:30am 15.3 13.3 13.8 91 0.9 ESE 17 20 9 11 1019.7 1015.1 0.0
03/07:00am 15.2 12.8 13.9 92 0.8 ESE 19 24 10 13 1019.4 1014.7 0.0
03/06:30am 15.2 12.6 13.9 92 0.8 ESE 20 26 11 14 1019.1 1014.4 0.0
03/06:00am 15.2 12.8 13.9 92 0.8 E 19 26 10 14 1018.8 1014.2 0.0
03/05:30am 15.4 13.4 13.9 91 0.9 ESE 17 24 9 13 1018.5 1013.8 0.0
03/05:00am 15.4 12.8 13.8 90 0.9 ESE 20 26 11 14 1018.4 1013.7 0.0
03/04:30am 15.4 12.8 13.8 90 0.9 ESE 20 24 11 13 1018.5 1013.8 0.0
03/04:00am 15.5 12.9 13.9 90 0.9 E 20 28 11 15 1018.7 1014.1 0.0
03/03:30am 15.7 12.8 13.9 89 1.1 E 22 30 12 16 1018.8 1014.2 0.0
03/03:00am 15.7 12.3 13.7 88 1.2 ESE 24 30 13 16 1019.1 1014.4 0.0
03/02:30am 15.8 13.4 13.8 88 1.2 ESE 19 26 10 14 1019.5 1014.9 0.0
03/02:00am 15.8 13.3 13.6 87 1.3 ESE 19 24 10 13 1019.9 1015.3 0.0
03/01:30am 16.0 13.4 13.7 86 1.4 ESE 20 33 11 18 1020.3 1015.6 0.0
03/01:00am 16.0 13.0 13.7 86 1.4 ESE 22 32 12 17 1020.5 1015.9 0.0
03/12:30am 16.3 13.8 13.6 84 1.6 ESE 19 32 10 17 1020.6 1016.0 0.0
03/12:00am 16.3 13.3 13.6 84 1.6 ESE 22 30 12 16 1020.7 1016.1 0.0
 
Date/Time
EDT
Temp
°C
App
Temp
°C
Dew
Point
Rel
Hum
%
Delta-T
°C
Wind Press
QNH
hPa
Press
MSL
hPa
Rain
since 9 am
mm
Dir
 
Spd
km/h
Gust
km/h
Spd
kts
Gust
kts
02/11:30pm 16.4 13.0 13.7 84 1.6 ESE 24 33 13 18 1020.9 1016.3 0.0
02/11:00pm 16.7 13.3 13.8 83 1.7 ESE 24 33 13 18 1020.7 1016.1 0.0
02/10:30pm 16.7 12.5 13.6 82 1.8 E 28 37 15 20 1020.6 1016.0 0.0
02/10:00pm 16.8 13.1 13.9 83 1.7 E 26 35 14 19 1020.6 1016.0 0.0
02/09:30pm 16.8 13.6 14.3 85 1.5 E 24 33 13 18 1020.3 1015.6 0.0
02/09:00pm 16.8 12.9 14.3 85 1.5 E 28 35 15 19 1020.0 1015.4 0.0
02/08:30pm 17.2 14.2 14.7 85 1.5 E 24 33 13 18 1019.6 1015.0 0.0
02/08:00pm 17.4 14.8 14.9 85 1.5 E 22 30 12 16 1018.9 1014.3 0.0
02/07:30pm 18.0 14.3 15.1 83 1.8 E 28 33 15 18 1018.4 1013.7 0.0
02/07:00pm 19.6 15.9 15.0 75 2.8 E 28 37 15 20 1018.1 1013.4 0.0
02/06:30pm 21.1 18.0 15.6 71 3.4 E 26 35 14 19 1017.6 1012.9 0.0
02/06:00pm 21.9 18.6 15.0 65 4.3 E 26 33 14 18 1017.3 1012.6 0.0
02/05:30pm 22.4 19.8 15.0 63 4.6 E 22 30 12 16 1017.2 1012.5 0.0
02/05:00pm 23.8 21.6 15.0 57 5.5 E 20 28 11 15 1017.0 1012.3 0.0
02/04:30pm 22.8 20.6 14.9 61 4.9 E 20 28 11 15 1017.1 1012.4 0.0
02/04:00pm 24.4 22.3 15.3 57 5.7 E 20 28 11 15 1016.8 1012.1 0.0
02/03:30pm 24.3 23.4 15.8 59 5.4 E 15 24 8 13 1017.2 1012.5 0.0
02/03:00pm 24.2 22.6 15.9 59 5.3 ENE 19 28 10 15 1017.4 1012.7 0.0
02/02:30pm 23.9 22.3 16.4 63 4.8 E 20 28 11 15 1017.9 1013.3 0.0
02/02:00pm 23.7 22.3 16.5 64 4.6 E 19 30 10 16 1018.3 1013.6 0.0
02/01:30pm 23.9 22.0 15.1 58 5.5 E 19 26 10 14 1018.6 1014.0 0.0
02/01:00pm 23.3 22.5 16.1 64 4.6 ESE 15 24 8 13 1018.8 1014.2 0.0
02/12:30pm 23.2 21.9 15.8 63 4.7 E 17 24 9 13 1019.1 1014.4 0.0
02/12:00pm 22.8 21.5 15.9 65 4.3 E 17 24 9 13 1019.4 1014.7 0.0
02/11:30am 22.3 20.5 15.6 66 4.2 E 19 26 10 14 1019.3 1014.6 0.0
02/11:00am 22.1 20.3 17.0 73 3.3 ESE 22 30 12 16 1019.5 1014.9 0.0
02/10:30am 21.4 18.7 15.7 70 3.6 E 24 33 13 18 1019.5 1014.9 0.0
02/10:00am 20.4 18.0 15.4 73 3.1 ESE 22 30 12 16 1019.4 1014.7 0.0
02/09:30am 19.6 16.5 15.5 77 2.5 ESE 26 32 14 17 1019.3 1014.6 0.0
02/09:00am 18.6 14.9 15.1 80 2.1 ESE 28 37 15 20 1018.7 1014.1 0.6
02/08:30am 17.4 14.2 14.3 82 1.9 ESE 24 33 13 18 1018.5 1013.8 0.6
02/08:00am 16.5 12.6 14.3 87 1.3 ESE 28 35 15 19 1018.2 1013.5 0.6
02/07:30am 15.5 12.9 13.7 89 1.1 ESE 20 26 11 14 1017.8 1013.2 0.6
02/07:00am 14.4 12.1 13.1 92 0.8 ESE 17 20 9 11 1017.5 1012.8 0.6
02/06:30am 14.5 12.2 12.9 90 0.9 ESE 17 24 9 13 1017.2 1012.5 0.6
02/06:00am 14.9 12.1 13.3 90 0.9 SE 20 26 11 14 1016.8 1012.1 0.6
02/05:30am 15.0 12.7 13.0 88 1.2 SE 17 26 9 14 1016.7 1012.0 0.6
02/05:00am 14.6 11.8 12.6 88 1.2 SE 19 22 10 12 1016.3 1011.6 0.6
02/04:30am 14.4 11.5 12.4 88 1.1 SE 19 24 10 13 1016.1 1011.4 0.6
02/04:00am 14.5 11.5 12.7 89 1.0 ESE 20 24 11 13 1016.3 1011.6 0.6
02/03:30am 14.0 13.4 12.4 90 0.9 SE 7 13 4 7 1016.0 1011.2 0.6
02/03:00am 14.4 12.9 13.0 91 0.8 SE 13 13 7 7 1015.8 1011.1 0.6
02/02:30am 14.4 13.1 12.6 89 1.0 SE 11 13 6 7 1015.8 1011.1 0.6
02/02:00am 15.4 13.6 13.2 87 1.3 ESE 15 19 8 10 1016.2 1011.5 0.6
02/01:30am 15.7 13.2 13.5 87 1.3 SE 19 24 10 13 1016.2 1011.5 0.6
02/01:00am 16.1 13.5 13.9 87 1.3 SE 20 28 11 15 1016.4 1011.7 0.6
02/12:30am 16.8 11.2 14.4 86 1.4 ESE 37 52 20 28 1016.7 1012.0 0.6
02/12:22am 17.9 14.3 15.2 84 1.7 SE 28 48 15 26 1016.5 1011.8 0.6
02/12:21am 18.2 14.7 15.5 84 1.7 SE 28 44 15 24 1016.4 1011.7 0.6
02/12:00am 18.2 16.8 16.9 92 0.8 ESE 20 26 11 14 1016.0 1011.2 0.6
 
Date/Time
EDT
Temp
°C
App
Temp
°C
Dew
Point
Rel
Hum
%
Delta-T
°C
Wind Press
QNH
hPa
Press
MSL
hPa
Rain
since 9 am
mm
Dir
 
Spd
km/h
Gust
km/h
Spd
kts
Gust
kts
01/11:30pm 17.8 18.9 17.0 95 0.5 ESE 7 9 4 5 1017.1 1012.4 0.0
01/11:00pm 16.6 16.6 15.3 92 0.8 SSE 9 9 5 5 1016.6 1011.9 0.0
01/10:30pm 17.3 18.1 15.8 91 0.9 ESE 6 9 3 5 1016.6 1011.9 0.0
01/10:00pm 17.5 17.8 16.0 91 0.9 E 9 13 5 7 1016.2 1011.5 0.0
01/09:30pm 18.5 19.3 16.3 87 1.4 W 7 7 4 4 1015.7 1011.0 0.0
01/09:00pm 19.0 20.1 16.6 86 1.5 W 6 7 3 4 1015.3 1010.6 0.0
01/08:30pm 19.5 20.8 16.2 81 2.1 SSE 4 7 2 4 1014.7 1010.0 0.0
01/08:00pm 20.4 22.5 16.2 77 2.6 CALM 0 4 0 2 1014.3 1009.6 0.0
01/07:30pm 21.9 22.9 16.4 71 3.5 SSW 6 7 3 4 1013.7 1009.0 0.0

Other Formats:

Comma delimited format used in spreadsheet applications
http://www.bom.gov.au/fwo/IDN60801/IDN60801.94588.axf

JavaScript Object Notation format (JSON) in row-major order
http://www.bom.gov.au/fwo/IDN60801/IDN60801.94588.json